createdAt,value
2019-05-02T00:10:01.218Z,13.93
2019-05-02T00:25:11.068Z,14.07
2019-05-02T00:40:20.126Z,14.68
2019-05-02T00:55:28.908Z,12.20
2019-05-02T01:10:37.376Z,11.95
2019-05-02T01:25:47.410Z,12.68
2019-05-02T01:40:55.869Z,12.53
2019-05-02T01:56:02.914Z,11.83
2019-05-02T02:11:12.254Z,12.78
2019-05-02T02:26:23.589Z,13.38
2019-05-02T02:41:30.659Z,18.65
2019-05-02T02:56:40.448Z,19.55
2019-05-02T03:11:49.478Z,19.30
2019-05-02T03:26:59.595Z,19.77
2019-05-02T03:42:07.488Z,16.75
2019-05-02T03:57:14.190Z,17.77
2019-05-02T04:12:22.999Z,16.25
2019-05-02T04:27:34.209Z,16.05
2019-05-02T04:42:40.690Z,14.35
2019-05-02T04:57:51.047Z,13.40
2019-05-02T05:12:57.305Z,12.82
2019-05-02T05:28:06.094Z,10.90
2019-05-02T05:43:15.882Z,8.03
2019-05-02T05:58:22.367Z,7.87
2019-05-02T06:13:29.446Z,7.90
2019-05-02T06:43:46.535Z,10.80
2019-05-02T06:58:54.217Z,10.25
2019-05-02T07:14:12.421Z,10.88
2019-05-02T07:29:09.698Z,10.15
2019-05-02T07:44:16.387Z,10.48
2019-05-02T07:59:25.147Z,10.50
2019-05-02T08:14:34.654Z,9.08
2019-05-02T08:30:35.270Z,9.35
2019-05-02T08:45:39.642Z,7.65
2019-05-02T09:00:47.697Z,6.55
2019-05-02T09:15:56.089Z,7.25
2019-05-02T09:31:06.647Z,6.83
2019-05-02T09:46:16.794Z,6.50
2019-05-02T10:01:37.182Z,5.65
2019-05-02T10:16:45.797Z,6.10
2019-05-02T10:31:52.888Z,6.33
2019-05-02T10:47:00.039Z,5.92
2019-05-02T11:02:09.573Z,6.95
2019-05-02T11:17:22.628Z,5.50
2019-05-02T11:32:28.809Z,5.70
2019-05-02T11:47:35.631Z,5.92
2019-05-02T12:02:42.009Z,5.83
2019-05-02T12:17:48.955Z,5.60
2019-05-02T12:32:55.915Z,5.80
2019-05-02T12:48:02.901Z,5.72
2019-05-02T13:03:12.008Z,5.47
2019-05-02T13:18:25.372Z,5.40
2019-05-02T13:33:35.839Z,6.58
2019-05-02T13:48:42.747Z,6.00
2019-05-02T14:03:49.494Z,5.15
2019-05-02T14:18:57.207Z,6.12
2019-05-02T14:34:21.767Z,5.40
2019-05-02T14:49:28.760Z,5.75
2019-05-02T15:04:38.209Z,6.35
2019-05-02T15:19:43.822Z,5.87
2019-05-02T15:34:55.819Z,5.78
2019-05-02T15:50:03.027Z,6.55
2019-05-02T16:05:11.881Z,5.40
2019-05-02T16:20:33.803Z,6.50
2019-05-02T16:35:42.008Z,6.83
2019-05-02T16:50:50.201Z,6.55
2019-05-02T17:05:56.980Z,7.58
2019-05-02T17:21:04.600Z,7.90
2019-05-02T17:36:11.710Z,9.25
2019-05-02T17:51:33.920Z,9.58
2019-05-02T18:06:38.479Z,8.73
2019-05-02T18:21:45.959Z,10.35
2019-05-02T18:36:57.489Z,11.12
2019-05-02T18:52:02.117Z,14.50
2019-05-02T19:07:14.312Z,14.87
2019-05-02T19:22:18.507Z,14.65
2019-05-02T19:37:25.874Z,14.23
2019-05-02T20:07:42.550Z,16.82
2019-05-02T20:22:49.236Z,20.82
2019-05-02T20:37:55.931Z,20.90
2019-05-02T20:53:04.249Z,20.65
2019-05-02T21:08:10.802Z,18.10
2019-05-02T21:23:18.450Z,20.62
2019-05-02T21:38:25.937Z,19.65
2019-05-02T21:53:56.036Z,18.35
2019-05-02T22:08:59.513Z,18.85
2019-05-02T22:24:11.305Z,18.40
2019-05-02T22:39:16.320Z,15.80
2019-05-02T22:54:30.229Z,16.32
2019-05-02T23:09:33.334Z,15.45
2019-05-02T23:24:53.974Z,14.73
2019-05-02T23:40:02.124Z,13.53
2019-05-02T23:55:12.253Z,12.70
